Portada
METAR-TAF:

METAR-TAF

Aeroports :

Greenville, Carolina del Sud, Estats Units d'Amèrica

latitud: 34-45-30N, longitud: 082-22-35W, altitud: 291 m

Observació

L'informe es va fer fa 46 minuts, a les 14:47 UTC
Vent calma
Temperatura 22°C
Humitat 83%
Pressió 1018 hPa
Visibilitat: 16.1 km
Cel clar

METAR: KGYH 241447Z 00000KT 10SM CLR 22/19 A3005

Hora: 11:33 (15:33 UTC)


TAF: manca

Observacions i pronòstics meteorològics de més de 4000 aeroports (METAR i TAF).

Les estacions disponibles són els punts grocs i vermells al mapa.

Posi el ratolí al punt desitjat per veure el nom de l'estació.

Feu clic per veure les observacions i els pronòstics meteorològics.

Per canviar el mapa: feu clic els botons verds amb una creu de color negre per apropar; al botó verd amb un guió per allunyar la imatge; o en les fletxes verdes per a mapes adjacents.


METAR-TAF: